KGLW/GLW METAR and TAF weather

Enter ICAO airport designator
Station Type Date Time Source
KGLW METAR 2024/06/15 23:35 UTC NOAA

KGLW 152335Z AUTO 05005KT 10SM CLR 29/19 A3001 RMK AO2 T02930189


Station Type Date Time Source
KGLW Decoded METAR 2024/06/15 23:35 UTC NOAA

Glasgow, Glasgow Municipal Airport, KY, United States (KGLW) 37-01-54N 085-57-13W
Jun 15, 2024 - 07:35 PM EDT / 2024.06.15 2335 UTC
Wind: from the NE (050 degrees) at 6 MPH (5 KT):0
Visibility: 10 mile(s):0
Sky conditions: clear
Temperature: 84.7 F (29.3 C)
Dew Point: 66.0 F (18.9 C)
Relative Humidity: 53%
Pressure (altimeter): 30.01 in. Hg (1016 hPa)
ob: KGLW 152335Z AUTO 05005KT 10SM CLR 29/19 A3001 RMK AO2 T02930189
cycle: 23

Station Type Date Time Source
KGLW TAF UTC NOAA

Error!

Example: see airport list